Mount Moriah, Missouri
Current Conditions -  °F | °C
As of 7:53 AM on Tuesday 27 Jan 2015 (Local Time) from KLWD Reporting Station
Clear Clear  
Wind Chill: -5°   Ceiling: Unl
Heat Index: -2°   Visibility: 9mi
Dew Point: -2°   Wind: 5mph
Humidity: 96%   Direction: 360°N
Pressure: 30.12"   Gusts: NA
Location:  40.33°N, 93.8°W
Report Text: KLWD 271353Z AUTO 36004KT 9SM CLR M02/M02 A3012 RMK AO2 SLP209 I1000 T10171022
Loading
Personal Weather Stations






























Interactive Weather Map New forecast layout! Learn more

10-Day Weather Forecast

Advertisements
Track Severe Weather on mobile